Time;durP1;ratioP1;P1;durP2;ratioP2;P2;SDS_P1;SDS_P2;PMS_P1;PMS_P2;Temp;Humidity;BMP_temperature;BMP_pressure;BME280_temperature;BME280_humidity;BME280_pressure;Samples;Min_cycle;Max_cycle;Signal;HPM_P1;HPM_P2
2023/08/02 00:01:38;;;;;;;12.23;3.83;;;;;;;;;;5064526;28;20492;-63
2023/08/02 00:04:04;;;;;;;8.57;3.63;;;;;;;;;;5047202;28;20053;-62
2023/08/02 00:06:36;;;;;;;12.52;3.38;;;;;;;;;;5050960;28;20055;-62
2023/08/02 00:09:03;;;;;;;15.82;3.70;;;;;;;;;;5053669;28;20060;-63
2023/08/02 00:11:30;;;;;;;15.18;3.03;;;;;;;;;;5045313;28;20508;-62
2023/08/02 00:13:56;;;;;;;11.70;3.33;;;;;;;;;;5063449;28;20804;-64
2023/08/02 00:16:22;;;;;;;9.57;2.80;;;;;;;;;;5053980;28;20128;-64
2023/08/02 00:18:49;;;;;;;12.45;3.50;;;;;;;;;;5055145;28;20152;-63
2023/08/02 00:21:16;;;;;;;13.90;3.58;;;;;;;;;;5047998;28;20483;-63
2023/08/02 00:23:42;;;;;;;18.98;4.00;;;;;;;;;;5047938;28;20084;-63
2023/08/02 00:26:09;;;;;;;10.20;3.22;;;;;;;;;;5048799;28;21335;-64
2023/08/02 00:28:35;;;;;;;12.05;3.50;;;;;;;;;;5063392;28;20057;-62
2023/08/02 00:31:01;;;;;;;8.70;2.92;;;;;;;;;;5063934;28;20057;-63
2023/08/02 00:33:28;;;;;;;12.70;3.42;;;;;;;;;;5054535;28;20085;-64
2023/08/02 00:35:55;;;;;;;12.02;3.38;;;;;;;;;;5051358;28;20317;-64
2023/08/02 00:38:22;;;;;;;11.95;3.65;;;;;;;;;;5061411;28;20057;-61
2023/08/02 00:40:48;;;;;;;10.38;3.65;;;;;;;;;;5064453;28;20064;-61
2023/08/02 00:43:15;;;;;;;20.70;3.78;;;;;;;;;;5059059;28;20075;-64
2023/08/02 00:45:41;;;;;;;13.95;4.05;;;;;;;;;;5061273;28;20061;-64
2023/08/02 00:48:08;;;;;;;10.93;3.88;;;;;;;;;;5064743;28;20057;-64
2023/08/02 00:50:35;;;;;;;13.00;3.88;;;;;;;;;;5045082;28;20421;-64
2023/08/02 00:53:02;;;;;;;12.65;3.55;;;;;;;;;;5046550;28;20528;-64
2023/08/02 00:55:29;;;;;;;10.68;3.30;;;;;;;;;;5052979;28;20430;-65
2023/08/02 00:57:56;;;;;;;10.15;3.88;;;;;;;;;;5061367;28;20413;-63
2023/08/02 01:00:23;;;;;;;11.40;3.65;;;;;;;;;;5064005;28;20641;-63
2023/08/02 01:02:49;;;;;;;12.13;3.90;;;;;;;;;;5063344;28;20053;-62
2023/08/02 01:05:17;;;;;;;10.65;4.35;;;;;;;;;;5064328;28;20057;-62
2023/08/02 01:07:53;;;;;;;9.07;3.80;;;;;;;;;;5057469;28;20557;-63
2023/08/02 01:10:19;;;;;;;;;;;;;;;;;;5047913;28;20052;-65
2023/08/02 01:12:46;;;;;;;7.38;3.85;;;;;;;;;;5044232;28;45311;-64
2023/08/02 01:15:16;;;;;;;9.63;3.75;;;;;;;;;;5045373;28;20065;-63
2023/08/02 01:17:43;;;;;;;9.88;4.82;;;;;;;;;;5063685;28;20057;-61
2023/08/02 01:20:10;;;;;;;12.65;4.28;;;;;;;;;;5061870;28;20106;-62
2023/08/02 01:22:36;;;;;;;10.15;4.30;;;;;;;;;;5061685;28;20543;-64
2023/08/02 01:25:04;;;;;;;15.35;4.13;;;;;;;;;;5061144;28;20126;-62
2023/08/02 01:27:35;;;;;;;12.82;3.78;;;;;;;;;;5050417;28;20041;-62
2023/08/02 01:30:03;;;;;;;13.68;4.30;;;;;;;;;;5044563;28;20060;-65
2023/08/02 01:32:30;;;;;;;7.63;3.90;;;;;;;;;;5054571;28;20053;-63
2023/08/02 01:34:56;;;;;;;11.00;4.68;;;;;;;;;;5048614;28;20057;-64
2023/08/02 01:37:23;;;;;;;8.77;3.80;;;;;;;;;;5047124;28;20535;-63
2023/08/02 01:39:49;;;;;;;10.57;4.15;;;;;;;;;;5063739;28;20049;-64
2023/08/02 01:42:16;;;;;;;13.20;4.63;;;;;;;;;;5060255;28;20057;-60
2023/08/02 01:44:43;;;;;;;15.57;4.82;;;;;;;;;;5063467;28;20056;-65
2023/08/02 01:47:09;;;;;;;12.50;4.05;;;;;;;;;;5063206;28;20508;-63
2023/08/02 01:49:36;;;;;;;13.57;4.28;;;;;;;;;;5063276;28;20146;-61
2023/08/02 01:52:02;;;;;;;11.80;4.03;;;;;;;;;;5062927;28;20154;-64
2023/08/02 01:54:29;;;;;;;9.07;4.43;;;;;;;;;;5056367;28;20554;-65
2023/08/02 01:56:55;;;;;;;12.88;4.20;;;;;;;;;;5057556;28;20414;-64
2023/08/02 01:59:22;;;;;;;9.45;4.20;;;;;;;;;;5062564;28;20140;-61
2023/08/02 02:01:48;;;;;;;9.55;3.63;;;;;;;;;;5060027;28;20499;-63
2023/08/02 02:04:14;;;;;;;15.82;4.50;;;;;;;;;;5043463;28;20164;-63
2023/08/02 02:06:41;;;;;;;10.88;4.85;;;;;;;;;;5053836;28;20538;-65
2023/08/02 02:09:08;;;;;;;9.23;4.40;;;;;;;;;;5056656;28;20053;-63
2023/08/02 02:11:35;;;;;;;16.15;4.10;;;;;;;;;;5053441;28;20128;-64
2023/08/02 02:14:02;;;;;;;13.45;4.65;;;;;;;;;;5063004;28;20458;-62
2023/08/02 02:16:29;;;;;;;8.77;4.40;;;;;;;;;;5052643;28;20487;-64
2023/08/02 02:18:55;;;;;;;10.35;4.18;;;;;;;;;;5045424;28;20149;-62
2023/08/02 02:21:22;;;;;;;9.38;4.40;;;;;;;;;;5050470;28;20123;-62
2023/08/02 02:23:48;;;;;;;9.60;4.70;;;;;;;;;;5042851;28;20504;-64
2023/08/02 02:26:14;;;;;;;9.10;3.55;;;;;;;;;;5043097;28;20053;-62
2023/08/02 02:28:41;;;;;;;14.15;4.55;;;;;;;;;;5060453;28;20060;-64
2023/08/02 02:31:08;;;;;;;8.07;4.30;;;;;;;;;;5057424;28;20565;-63
2023/08/02 02:33:34;;;;;;;10.95;4.00;;;;;;;;;;5063331;28;20496;-62
2023/08/02 02:36:01;;;;;;;7.22;3.90;;;;;;;;;;5049711;28;20625;-63
2023/08/02 02:38:27;;;;;;;8.35;4.00;;;;;;;;;;5044527;28;20076;-64
2023/08/02 02:40:53;;;;;;;9.65;3.80;;;;;;;;;;5041104;28;20500;-63
2023/08/02 02:43:20;;;;;;;8.48;3.75;;;;;;;;;;5046211;28;20491;-61
2023/08/02 02:45:46;;;;;;;9.20;3.45;;;;;;;;;;5053687;28;20562;-59
2023/08/02 02:48:13;;;;;;;9.82;3.90;;;;;;;;;;5062857;28;20499;-63
2023/08/02 02:50:39;;;;;;;9.80;4.55;;;;;;;;;;5062189;28;20143;-64
2023/08/02 02:53:06;;;;;;;6.45;3.63;;;;;;;;;;5049579;28;20045;-64
2023/08/02 02:55:32;;;;;;;7.55;4.13;;;;;;;;;;5058331;28;20084;-64
2023/08/02 02:57:58;;;;;;;6.15;3.58;;;;;;;;;;5049915;28;20045;-64
2023/08/02 03:00:25;;;;;;;12.35;4.45;;;;;;;;;;5051782;28;20142;-64
2023/08/02 03:02:51;;;;;;;9.52;3.63;;;;;;;;;;5042522;28;20051;-63
2023/08/02 03:05:18;;;;;;;9.38;3.83;;;;;;;;;;5059767;28;20123;-64
2023/08/02 03:07:46;;;;;;;13.77;4.03;;;;;;;;;;5044403;28;20065;-65
2023/08/02 03:10:12;;;;;;;11.98;5.05;;;;;;;;;;5048120;28;20057;-64
2023/08/02 03:12:39;;;;;;;7.45;3.72;;;;;;;;;;5043577;28;20066;-64
2023/08/02 03:15:05;;;;;;;11.48;4.35;;;;;;;;;;5043056;28;20054;-63
2023/08/02 03:17:32;;;;;;;8.73;3.65;;;;;;;;;;5060595;28;20053;-62
2023/08/02 03:19:59;;;;;;;10.63;4.45;;;;;;;;;;5060630;28;20053;-62
2023/08/02 03:22:25;;;;;;;7.30;3.70;;;;;;;;;;5061116;28;20576;-64
2023/08/02 03:24:51;;;;;;;8.85;3.97;;;;;;;;;;5061260;28;20179;-63
2023/08/02 03:27:18;;;;;;;6.75;4.20;;;;;;;;;;5049746;28;20562;-61
2023/08/02 03:29:44;;;;;;;9.90;3.13;;;;;;;;;;5056544;28;20056;-65
2023/08/02 03:32:11;;;;;;;6.68;3.60;;;;;;;;;;5045209;28;20542;-62
2023/08/02 03:34:37;;;;;;;7.25;3.45;;;;;;;;;;5048053;28;20057;-65
2023/08/02 03:37:04;;;;;;;12.82;4.18;;;;;;;;;;5048560;28;20053;-64
2023/08/02 03:39:30;;;;;;;8.40;3.35;;;;;;;;;;5059304;28;20423;-63
2023/08/02 03:41:57;;;;;;;11.90;4.28;;;;;;;;;;5048003;28;20058;-62
2023/08/02 03:44:23;;;;;;;11.45;3.95;;;;;;;;;;5048262;28;20512;-64
2023/08/02 03:46:50;;;;;;;11.27;3.88;;;;;;;;;;5057818;28;20053;-65
2023/08/02 03:49:16;;;;;;;6.90;3.20;;;;;;;;;;5042950;28;20526;-60
2023/08/02 03:51:43;;;;;;;7.25;3.85;;;;;;;;;;5050306;28;20111;-63
2023/08/02 03:54:13;;;;;;;9.35;3.60;;;;;;;;;;5047750;28;20172;-65
2023/08/02 03:56:39;;;;;;;8.75;3.33;;;;;;;;;;5052611;28;20053;-64
2023/08/02 03:59:06;;;;;;;10.82;4.38;;;;;;;;;;5059434;28;20503;-62
2023/08/02 04:01:33;;;;;;;7.65;3.92;;;;;;;;;;5057992;28;20084;-61
2023/08/02 04:03:59;;;;;;;9.73;3.38;;;;;;;;;;5050391;28;20060;-64
2023/08/02 04:06:26;;;;;;;9.65;4.25;;;;;;;;;;5062109;28;20140;-64
2023/08/02 04:08:52;;;;;;;10.90;3.72;;;;;;;;;;5046900;28;20084;-62
2023/08/02 04:11:19;;;;;;;7.90;2.80;;;;;;;;;;5054573;28;20590;-63
2023/08/02 04:13:45;;;;;;;7.78;3.60;;;;;;;;;;5049575;28;20526;-65
2023/08/02 04:16:12;;;;;;;11.13;3.83;;;;;;;;;;5050810;28;20052;-62
2023/08/02 04:18:38;;;;;;;8.25;3.60;;;;;;;;;;5050101;28;20071;-63
2023/08/02 04:21:05;;;;;;;11.30;3.85;;;;;;;;;;5041867;28;20064;-64
2023/08/02 04:23:31;;;;;;;11.52;3.97;;;;;;;;;;5048741;28;20053;-63
2023/08/02 04:25:57;;;;;;;7.28;4.05;;;;;;;;;;5041952;28;20141;-63
2023/08/02 04:28:25;;;;;;;6.60;3.53;;;;;;;;;;5051716;28;20053;-65
2023/08/02 04:30:52;;;;;;;8.52;4.18;;;;;;;;;;5063380;28;20442;-64
2023/08/02 04:33:18;;;;;;;7.38;3.17;;;;;;;;;;5047566;28;20049;-64
2023/08/02 04:35:44;;;;;;;12.00;3.58;;;;;;;;;;5061149;28;20595;-63
2023/08/02 04:38:11;;;;;;;8.40;3.20;;;;;;;;;;5052241;28;20073;-63
2023/08/02 04:40:38;;;;;;;10.20;3.75;;;;;;;;;;5060521;28;20053;-65
2023/08/02 04:43:05;;;;;;;10.20;3.70;;;;;;;;;;5050463;28;20433;-63
2023/08/02 04:45:31;;;;;;;7.53;3.67;;;;;;;;;;5065093;28;20089;-63
2023/08/02 04:47:58;;;;;;;8.70;4.15;;;;;;;;;;5067032;28;20064;-64
2023/08/02 04:50:24;;;;;;;7.68;3.17;;;;;;;;;;5062403;28;20049;-64
2023/08/02 04:52:51;;;;;;;8.32;3.42;;;;;;;;;;5065248;28;20057;-65
2023/08/02 04:55:18;;;;;;;9.70;3.47;;;;;;;;;;5065326;28;20063;-62
2023/08/02 04:57:44;;;;;;;13.55;3.38;;;;;;;;;;5065352;28;20049;-63
2023/08/02 05:00:11;;;;;;;9.10;3.53;;;;;;;;;;5063705;28;20084;-64
2023/08/02 05:02:37;;;;;;;9.25;3.58;;;;;;;;;;5062618;28;20083;-62
2023/08/02 05:05:04;;;;;;;8.48;3.25;;;;;;;;;;5052590;28;20519;-63
2023/08/02 05:07:31;;;;;;;14.63;4.35;;;;;;;;;;5047341;28;20064;-64
2023/08/02 05:09:59;;;;;;;10.55;4.15;;;;;;;;;;5044736;28;20124;-64
2023/08/02 05:12:25;;;;;;;6.13;3.25;;;;;;;;;;5059793;28;20059;-66
2023/08/02 05:14:52;;;;;;;7.20;3.28;;;;;;;;;;5050741;28;20080;-64
2023/08/02 05:17:18;;;;;;;7.68;3.45;;;;;;;;;;5064894;28;20149;-62
2023/08/02 05:19:45;;;;;;;7.63;3.53;;;;;;;;;;5054163;28;20063;-65
2023/08/02 05:22:11;;;;;;;10.07;3.47;;;;;;;;;;5044258;28;20431;-66
2023/08/02 05:24:38;;;;;;;5.70;3.22;;;;;;;;;;5044493;28;20127;-63
2023/08/02 05:27:04;;;;;;;7.60;3.00;;;;;;;;;;5044260;28;20080;-63
2023/08/02 05:29:31;;;;;;;7.25;3.10;;;;;;;;;;5056123;28;20053;-64
2023/08/02 05:31:57;;;;;;;6.15;3.28;;;;;;;;;;5062656;28;20060;-64
2023/08/02 05:34:24;;;;;;;7.50;3.28;;;;;;;;;;5064123;28;20555;-62
2023/08/02 05:36:50;;;;;;;8.32;3.15;;;;;;;;;;5047040;28;20465;-64
2023/08/02 05:39:16;;;;;;;10.15;3.67;;;;;;;;;;5043779;28;20053;-61
2023/08/02 05:41:43;;;;;;;5.47;3.45;;;;;;;;;;5053644;28;20061;-61
2023/08/02 05:44:10;;;;;;;5.22;3.22;;;;;;;;;;5064189;28;20423;-62
2023/08/02 05:46:36;;;;;;;10.27;3.28;;;;;;;;;;5057277;28;20049;-64
2023/08/02 05:49:02;;;;;;;7.70;3.40;;;;;;;;;;5050736;28;20523;-62
2023/08/02 05:51:29;;;;;;;10.23;3.20;;;;;;;;;;5062788;28;20148;-63
2023/08/02 05:53:56;;;;;;;8.48;3.20;;;;;;;;;;5064179;28;20143;-63
2023/08/02 05:56:22;;;;;;;6.63;3.10;;;;;;;;;;5063652;28;20613;-64
2023/08/02 05:58:48;;;;;;;7.43;3.80;;;;;;;;;;5063501;28;20578;-63
2023/08/02 06:01:15;;;;;;;8.98;3.47;;;;;;;;;;5045328;28;20591;-64
2023/08/02 06:03:42;;;;;;;9.30;4.00;;;;;;;;;;5061688;28;20639;-65
2023/08/02 06:06:08;;;;;;;5.30;3.53;;;;;;;;;;5061581;28;21519;-63
2023/08/02 06:08:36;;;;;;;11.98;4.50;;;;;;;;;;5063425;28;20057;-63
2023/08/02 06:11:03;;;;;;;7.38;3.72;;;;;;;;;;5061078;28;20685;-63
2023/08/02 06:13:30;;;;;;;12.98;4.55;;;;;;;;;;5062137;28;20061;-65
2023/08/02 06:15:56;;;;;;;7.65;4.55;;;;;;;;;;5044067;28;20492;-64
2023/08/02 06:18:22;;;;;;;7.70;4.03;;;;;;;;;;5043333;28;20057;-64
2023/08/02 06:20:49;;;;;;;7.63;3.67;;;;;;;;;;5043045;28;20085;-63
2023/08/02 06:23:15;;;;;;;10.32;4.45;;;;;;;;;;5043636;28;20560;-63
2023/08/02 06:25:42;;;;;;;8.07;3.97;;;;;;;;;;5043809;28;20073;-63
2023/08/02 06:28:08;;;;;;;9.10;4.43;;;;;;;;;;5043326;28;20601;-64
2023/08/02 06:30:34;;;;;;;9.23;4.80;;;;;;;;;;5043592;28;20059;-64
2023/08/02 06:33:01;;;;;;;9.52;4.43;;;;;;;;;;5043477;28;20153;-65
2023/08/02 06:35:27;;;;;;;9.05;4.53;;;;;;;;;;5042938;28;20050;-64
2023/08/02 06:37:54;;;;;;;8.73;4.15;;;;;;;;;;5058683;28;20171;-64
2023/08/02 06:40:20;;;;;;;8.10;4.50;;;;;;;;;;5043525;28;20056;-64
2023/08/02 06:42:47;;;;;;;6.88;3.85;;;;;;;;;;5043316;28;20057;-59
2023/08/02 06:45:13;;;;;;;8.68;4.53;;;;;;;;;;5043582;28;20529;-66
2023/08/02 06:47:40;;;;;;;9.00;4.78;;;;;;;;;;5052643;28;20053;-65
2023/08/02 06:50:06;;;;;;;8.77;4.25;;;;;;;;;;5047554;28;20041;-62
2023/08/02 06:52:33;;;;;;;6.07;4.40;;;;;;;;;;5064956;28;20523;-58
2023/08/02 06:54:59;;;;;;;7.88;4.30;;;;;;;;;;5059713;28;20049;-65
2023/08/02 06:57:30;;;;;;;6.65;4.72;;;;;;;;;;5046978;28;20065;-64
2023/08/02 06:59:57;;;;;;;8.60;4.05;;;;;;;;;;5062695;28;20124;-65
2023/08/02 07:02:23;;;;;;;5.38;3.75;;;;;;;;;;5062127;28;20492;-64
2023/08/02 07:04:50;;;;;;;8.82;4.85;;;;;;;;;;5051405;28;20176;-64
2023/08/02 07:07:17;;;;;;;7.88;4.05;;;;;;;;;;5049889;28;20057;-61
2023/08/02 07:09:46;;;;;;;6.75;3.70;;;;;;;;;;5059878;28;20582;-64
2023/08/02 07:12:13;;;;;;;4.70;3.33;;;;;;;;;;5060276;28;20060;-62
2023/08/02 07:14:40;;;;;;;3.85;3.17;;;;;;;;;;5064732;28;20053;-62
2023/08/02 07:17:07;;;;;;;5.28;3.60;;;;;;;;;;5061825;28;20053;-64
2023/08/02 07:19:33;;;;;;;5.45;3.80;;;;;;;;;;5053382;28;20053;-60
2023/08/02 07:22:00;;;;;;;4.18;3.42;;;;;;;;;;5049746;28;20053;-63
2023/08/02 07:24:26;;;;;;;5.30;3.25;;;;;;;;;;5062208;28;20064;-59
2023/08/02 07:26:53;;;;;;;5.18;3.78;;;;;;;;;;5061243;28;20350;-64
2023/08/02 07:29:19;;;;;;;3.80;3.22;;;;;;;;;;5060718;28;22029;-65
2023/08/02 07:31:46;;;;;;;9.23;4.78;;;;;;;;;;5061121;28;20057;-60
2023/08/02 07:34:13;;;;;;;5.05;3.85;;;;;;;;;;5061159;28;20053;-64
2023/08/02 07:36:39;;;;;;;7.43;3.90;;;;;;;;;;5061874;28;20062;-63
2023/08/02 07:39:06;;;;;;;4.82;3.67;;;;;;;;;;5053148;28;20053;-63
2023/08/02 07:41:33;;;;;;;4.75;2.88;;;;;;;;;;5042285;28;20061;-63
2023/08/02 07:43:59;;;;;;;4.82;3.47;;;;;;;;;;5047439;28;20053;-62
2023/08/02 07:46:26;;;;;;;3.60;2.90;;;;;;;;;;5052899;28;20220;-64
2023/08/02 07:48:52;;;;;;;5.00;2.88;;;;;;;;;;5070275;28;20056;-59
2023/08/02 07:51:19;;;;;;;4.22;2.70;;;;;;;;;;5061562;28;20041;-62
2023/08/02 07:53:46;;;;;;;6.72;3.60;;;;;;;;;;5059279;28;20139;-60
2023/08/02 07:56:13;;;;;;;4.82;3.22;;;;;;;;;;5056267;28;20069;-64
2023/08/02 07:58:39;;;;;;;3.58;2.88;;;;;;;;;;5060113;28;20133;-65
2023/08/02 08:01:10;;;;;;;3.33;2.30;;;;;;;;;;5044037;28;20196;-64
2023/08/02 08:03:36;;;;;;;2.63;2.42;;;;;;;;;;5047835;28;20061;-63
2023/08/02 08:06:10;;;;;;;3.42;2.47;;;;;;;;;;5063998;28;20053;-62
2023/08/02 08:08:37;;;;;;;3.40;2.10;;;;;;;;;;5060615;28;20103;-61
2023/08/02 08:11:03;;;;;;;5.32;2.20;;;;;;;;;;5066463;28;20498;-62
2023/08/02 08:13:30;;;;;;;2.20;1.90;;;;;;;;;;5058020;28;20057;-63
2023/08/02 08:15:57;;;;;;;3.80;1.77;;;;;;;;;;5054538;28;21295;-63
2023/08/02 08:18:23;;;;;;;2.50;2.22;;;;;;;;;;5051908;28;20162;-59
2023/08/02 08:20:50;;;;;;;2.33;2.03;;;;;;;;;;5048717;28;20054;-64
2023/08/02 08:23:16;;;;;;;2.83;1.80;;;;;;;;;;5052823;28;20053;-63
2023/08/02 08:25:43;;;;;;;1.92;1.75;;;;;;;;;;5054581;28;20053;-64
2023/08/02 08:28:09;;;;;;;3.80;1.70;;;;;;;;;;5047232;28;20109;-63
2023/08/02 08:30:36;;;;;;;1.70;1.60;;;;;;;;;;5063421;28;20154;-63
2023/08/02 08:33:02;;;;;;;2.38;1.60;;;;;;;;;;5063407;28;20060;-63
2023/08/02 08:35:32;;;;;;;1.42;1.33;;;;;;;;;;5061742;28;20475;-62
2023/08/02 08:37:59;;;;;;;2.15;1.60;;;;;;;;;;5065518;28;20135;-62
2023/08/02 08:40:25;;;;;;;1.75;1.40;;;;;;;;;;5058669;28;20504;-64
2023/08/02 08:42:53;;;;;;;1.73;1.52;;;;;;;;;;5058156;28;20049;-64
2023/08/02 08:45:20;;;;;;;1.65;1.48;;;;;;;;;;5062459;28;20476;-64
2023/08/02 08:47:47;;;;;;;2.35;1.70;;;;;;;;;;5063359;28;20503;-61
2023/08/02 08:50:14;;;;;;;1.60;1.30;;;;;;;;;;5063495;28;20569;-64
2023/08/02 08:52:44;;;;;;;3.72;1.45;;;;;;;;;;5064128;28;20080;-64
2023/08/02 08:55:12;;;;;;;1.35;1.25;;;;;;;;;;5064351;28;20053;-64
2023/08/02 08:57:39;;;;;;;1.90;1.20;;;;;;;;;;5061269;28;20061;-60
2023/08/02 09:00:07;;;;;;;1.35;1.25;;;;;;;;;;5071313;28;20497;-61
2023/08/02 09:02:34;;;;;;;1.65;1.08;;;;;;;;;;5070098;28;20052;-58
2023/08/02 09:05:01;;;;;;;4.43;1.25;;;;;;;;;;5056342;28;20057;-61
2023/08/02 09:07:28;;;;;;;1.27;1.17;;;;;;;;;;5062849;28;20045;-62
2023/08/02 09:09:55;;;;;;;3.47;1.15;;;;;;;;;;5059065;28;20057;-61
2023/08/02 09:12:23;;;;;;;1.55;1.40;;;;;;;;;;5062079;28;20056;-61
2023/08/02 09:15:00;;;;;;;1.30;1.23;;;;;;;;;;5062178;28;20052;-62
2023/08/02 09:17:27;;;;;;;0.82;0.82;;;;;;;;;;5049759;28;20076;-62
2023/08/02 09:20:06;;;;;;;1.40;1.30;;;;;;;;;;5060559;28;20141;-61
2023/08/02 09:22:33;;;;;;;1.40;1.30;;;;;;;;;;5057568;28;20057;-63
2023/08/02 09:25:02;;;;;;;1.30;1.20;;;;;;;;;;5057416;28;20416;-65
2023/08/02 09:27:30;;;;;;;2.03;1.83;;;;;;;;;;5058720;28;20049;-63
2023/08/02 09:29:56;;;;;;;2.20;1.65;;;;;;;;;;5057704;28;20057;-64
2023/08/02 09:32:23;;;;;;;1.60;1.50;;;;;;;;;;5063887;28;20080;-63
2023/08/02 09:34:52;;;;;;;1.58;1.48;;;;;;;;;;5063819;28;20045;-61
2023/08/02 09:37:32;;;;;;;1.83;1.55;;;;;;;;;;5061084;28;20103;-63
2023/08/02 09:39:59;;;;;;;1.65;1.50;;;;;;;;;;5059290;28;20053;-64
2023/08/02 09:42:26;;;;;;;1.88;1.52;;;;;;;;;;5059500;28;20056;-63
2023/08/02 09:44:54;;;;;;;1.83;1.73;;;;;;;;;;5062154;28;20049;-64
2023/08/02 09:47:21;;;;;;;2.55;2.03;;;;;;;;;;5046398;28;20568;-64
2023/08/02 09:50:06;;;;;;;2.00;1.88;;;;;;;;;;5056334;28;20515;-63
2023/08/02 09:52:33;;;;;;;4.88;2.08;;;;;;;;;;5060423;28;20148;-60
2023/08/02 09:55:00;;;;;;;3.75;2.08;;;;;;;;;;5054743;28;20631;-62
2023/08/02 09:57:27;;;;;;;2.35;2.15;;;;;;;;;;5063126;28;20053;-63
2023/08/02 09:59:55;;;;;;;2.40;2.20;;;;;;;;;;5064044;28;20093;-62
2023/08/02 10:02:23;;;;;;;2.00;1.80;;;;;;;;;;5058391;28;20431;-62
2023/08/02 10:04:53;;;;;;;3.10;2.22;;;;;;;;;;5059127;28;20119;-63
2023/08/02 10:07:20;;;;;;;2.08;1.98;;;;;;;;;;5054604;28;20057;-62
2023/08/02 10:09:48;;;;;;;2.97;2.20;;;;;;;;;;5061075;28;20064;-61
2023/08/02 10:12:17;;;;;;;3.65;2.22;;;;;;;;;;5057275;28;20099;-63
2023/08/02 10:14:44;;;;;;;3.33;2.30;;;;;;;;;;5052387;28;20053;-64
2023/08/02 10:17:11;;;;;;;2.40;2.20;;;;;;;;;;5050295;28;20145;-60
2023/08/02 10:19:38;;;;;;;3.60;2.63;;;;;;;;;;5063200;28;20167;-60
2023/08/02 10:22:05;;;;;;;3.10;2.33;;;;;;;;;;5054871;28;20057;-60
2023/08/02 10:24:31;;;;;;;2.60;2.40;;;;;;;;;;5052458;28;20128;-59
2023/08/02 10:27:01;;;;;;;2.75;2.10;;;;;;;;;;5052664;28;20144;-61
2023/08/02 10:29:29;;;;;;;2.47;2.00;;;;;;;;;;5048372;28;20452;-61
2023/08/02 10:31:56;;;;;;;3.47;2.03;;;;;;;;;;5062987;28;20588;-62
2023/08/02 10:34:35;;;;;;;2.22;1.98;;;;;;;;;;5061544;28;20049;-60
2023/08/02 10:37:02;;;;;;;2.20;2.00;;;;;;;;;;5060883;28;20056;-60
2023/08/02 10:39:47;;;;;;;2.22;2.00;;;;;;;;;;5060525;28;20531;-61
2023/08/02 10:42:14;;;;;;;4.07;2.03;;;;;;;;;;5043079;28;20049;-61
2023/08/02 10:45:01;;;;;;;5.40;1.88;;;;;;;;;;5050659;28;20950;-60
2023/08/02 10:47:28;;;;;;;3.00;1.80;;;;;;;;;;5050572;28;20516;-62
2023/08/02 10:49:55;;;;;;;3.42;1.63;;;;;;;;;;5069417;28;20051;-63
2023/08/02 10:52:35;;;;;;;1.40;1.30;;;;;;;;;;5049469;28;20060;-61
2023/08/02 10:55:12;;;;;;;2.78;1.42;;;;;;;;;;5064223;28;20253;-61
2023/08/02 10:57:40;;;;;;;1.45;1.33;;;;;;;;;;5042343;28;20497;-62
2023/08/02 11:00:23;;;;;;;2.90;1.70;;;;;;;;;;5051026;28;20114;-63
2023/08/02 11:02:50;;;;;;;1.55;1.30;;;;;;;;;;5062747;28;20081;-61
2023/08/02 11:05:35;;;;;;;2.85;1.30;;;;;;;;;;5058722;28;20503;-59
2023/08/02 11:08:02;;;;;;;2.40;1.13;;;;;;;;;;5062529;28;20549;-63
2023/08/02 11:10:29;;;;;;;3.15;1.38;;;;;;;;;;5058574;28;20811;-62
2023/08/02 11:12:55;;;;;;;1.85;1.10;;;;;;;;;;5067184;28;20154;-62
2023/08/02 11:15:22;;;;;;;5.10;1.27;;;;;;;;;;5057332;28;20045;-60
2023/08/02 11:17:56;;;;;;;1.75;1.05;;;;;;;;;;5046088;28;20053;-62
2023/08/02 11:20:24;;;;;;;3.63;1.13;;;;;;;;;;5054310;28;20337;-62
2023/08/02 11:22:51;;;;;;;3.72;1.00;;;;;;;;;;5044510;28;20523;-66
2023/08/02 11:25:19;;;;;;;1.40;0.90;;;;;;;;;;5051761;28;20103;-64
2023/08/02 11:28:05;;;;;;;1.65;0.77;;;;;;;;;;5061213;28;20049;-60
2023/08/02 11:30:33;;;;;;;3.42;1.30;;;;;;;;;;5053107;28;20057;-63
2023/08/02 11:32:59;;;;;;;5.18;1.55;;;;;;;;;;5057167;28;20053;-62
2023/08/02 11:35:26;;;;;;;4.55;1.00;;;;;;;;;;5050412;28;20511;-64
2023/08/02 11:37:53;;;;;;;4.57;1.48;;;;;;;;;;5055101;28;20149;-63
2023/08/02 11:40:19;;;;;;;6.00;1.20;;;;;;;;;;5053990;28;20597;-62
2023/08/02 11:42:53;;;;;;;3.00;1.33;;;;;;;;;;5065577;28;20049;-64
2023/08/02 11:45:31;;;;;;;4.57;1.13;;;;;;;;;;5064792;28;20677;-60
2023/08/02 11:47:57;;;;;;;3.65;1.63;;;;;;;;;;5045278;28;20057;-64
2023/08/02 11:50:36;;;;;;;4.20;1.60;;;;;;;;;;5052970;28;20442;-60
2023/08/02 11:53:04;;;;;;;4.28;1.60;;;;;;;;;;5045228;28;20111;-62
2023/08/02 11:55:35;;;;;;;5.90;1.70;;;;;;;;;;5044504;28;20053;-60
2023/08/02 11:58:03;;;;;;;9.35;1.70;;;;;;;;;;5050430;28;20056;-61
2023/08/02 12:00:30;;;;;;;4.50;1.58;;;;;;;;;;5058025;28;20096;-63
2023/08/02 12:03:06;;;;;;;7.80;1.83;;;;;;;;;;5048262;28;20083;-62
2023/08/02 12:05:33;;;;;;;5.22;1.27;;;;;;;;;;5069524;28;20057;-61
2023/08/02 12:08:10;;;;;;;5.00;1.35;;;;;;;;;;5065705;28;20507;-62
2023/08/02 12:10:40;;;;;;;4.18;1.20;;;;;;;;;;5065273;28;20092;-62
2023/08/02 12:13:17;;;;;;;5.95;1.25;;;;;;;;;;5065105;28;20804;-62
2023/08/02 12:15:58;;;;;;;6.55;1.35;;;;;;;;;;5064928;28;20057;-60
2023/08/02 12:18:25;;;;;;;3.13;0.93;;;;;;;;;;5062947;28;20048;-62
2023/08/02 12:20:52;;;;;;;2.30;1.02;;;;;;;;;;5060993;28;20629;-62
2023/08/02 12:23:34;;;;;;;8.00;1.42;;;;;;;;;;5051136;28;20061;-63
2023/08/02 12:26:01;;;;;;;3.97;1.10;;;;;;;;;;5055708;28;20053;-63
2023/08/02 12:28:44;;;;;;;5.07;1.10;;;;;;;;;;5063762;28;20103;-62
2023/08/02 12:31:11;;;;;;;3.20;0.90;;;;;;;;;;5065180;28;20044;-63
2023/08/02 12:33:38;;;;;;;3.70;1.13;;;;;;;;;;5050808;28;20061;-63
2023/08/02 12:36:04;;;;;;;3.15;0.55;;;;;;;;;;5064646;28;20569;-64
2023/08/02 12:38:31;;;;;;;1.77;0.80;;;;;;;;;;5064467;28;20064;-63
2023/08/02 12:40:58;;;;;;;4.05;0.70;;;;;;;;;;5064848;28;20057;-63
2023/08/02 12:43:25;;;;;;;3.38;0.85;;;;;;;;;;5063309;28;20061;-64
2023/08/02 12:45:52;;;;;;;3.83;0.93;;;;;;;;;;5057084;28;20064;-64
2023/08/02 12:48:19;;;;;;;3.95;1.00;;;;;;;;;;5061833;28;20053;-64
2023/08/02 12:50:45;;;;;;;3.85;1.23;;;;;;;;;;5060551;28;20068;-60
2023/08/02 12:53:12;;;;;;;2.50;0.85;;;;;;;;;;5052856;28;20112;-64
2023/08/02 12:55:39;;;;;;;1.90;0.82;;;;;;;;;;5043817;28;20144;-62
2023/08/02 12:58:05;;;;;;;2.53;0.80;;;;;;;;;;5055638;28;20363;-62
2023/08/02 13:00:32;;;;;;;2.17;0.85;;;;;;;;;;5056760;28;20476;-62
2023/08/02 13:02:59;;;;;;;4.05;0.88;;;;;;;;;;5075820;28;20064;-64
2023/08/02 13:05:25;;;;;;;2.22;0.80;;;;;;;;;;5074833;28;20132;-64
2023/08/02 13:07:51;;;;;;;7.50;1.00;;;;;;;;;;5064152;28;20534;-62
2023/08/02 13:10:18;;;;;;;5.70;0.88;;;;;;;;;;5062969;28;20158;-63
2023/08/02 13:12:45;;;;;;;6.30;1.25;;;;;;;;;;5044183;28;20057;-64
2023/08/02 13:15:11;;;;;;;3.88;1.05;;;;;;;;;;5045483;28;20053;-64
2023/08/02 13:17:38;;;;;;;2.15;1.00;;;;;;;;;;5050747;28;20049;-61
2023/08/02 13:20:05;;;;;;;4.10;1.55;;;;;;;;;;5043107;28;20060;-63
2023/08/02 13:22:31;;;;;;;2.80;0.73;;;;;;;;;;5047246;28;20393;-64
2023/08/02 13:25:00;;;;;;;5.65;1.00;;;;;;;;;;5064332;28;20041;-64
2023/08/02 13:27:26;;;;;;;2.90;0.90;;;;;;;;;;5061572;28;20059;-64
2023/08/02 13:29:53;;;;;;;2.28;0.80;;;;;;;;;;5056785;28;20053;-63
2023/08/02 13:32:19;;;;;;;2.10;0.73;;;;;;;;;;5057276;28;20044;-61
2023/08/02 13:34:46;;;;;;;3.08;0.85;;;;;;;;;;5062400;28;20523;-61
2023/08/02 13:37:12;;;;;;;2.53;0.73;;;;;;;;;;5062259;28;20067;-61
2023/08/02 13:39:38;;;;;;;3.75;1.00;;;;;;;;;;5043427;28;20579;-62
2023/08/02 13:42:05;;;;;;;6.50;0.85;;;;;;;;;;5043737;28;20140;-64
2023/08/02 13:44:31;;;;;;;3.05;1.00;;;;;;;;;;5043649;28;20049;-64
2023/08/02 13:46:59;;;;;;;4.53;1.00;;;;;;;;;;5043235;28;20642;-62
2023/08/02 13:49:26;;;;;;;3.55;0.60;;;;;;;;;;5058868;28;20573;-62
2023/08/02 13:51:52;;;;;;;5.28;1.23;;;;;;;;;;5057387;28;20188;-61
2023/08/02 13:54:19;;;;;;;2.72;0.93;;;;;;;;;;5080335;28;20523;-64
2023/08/02 13:56:45;;;;;;;5.57;0.82;;;;;;;;;;5070809;28;20590;-61
2023/08/02 13:59:12;;;;;;;3.25;0.80;;;;;;;;;;5061327;28;20045;-62
2023/08/02 14:01:38;;;;;;;4.72;0.93;;;;;;;;;;5054280;28;20064;-65
2023/08/02 14:04:05;;;;;;;3.40;0.80;;;;;;;;;;5077400;28;20131;-64
2023/08/02 14:06:31;;;;;;;5.95;1.02;;;;;;;;;;5081436;28;20053;-64
2023/08/02 14:08:58;;;;;;;8.45;1.40;;;;;;;;;;5063923;28;20052;-64
2023/08/02 14:11:24;;;;;;;6.85;1.20;;;;;;;;;;5070607;28;20322;-63
2023/08/02 14:13:51;;;;;;;4.53;0.93;;;;;;;;;;5083584;28;20048;-66
2023/08/02 14:16:17;;;;;;;4.55;1.08;;;;;;;;;;5052031;28;20465;-60
2023/08/02 14:18:44;;;;;;;5.07;1.10;;;;;;;;;;5056908;28;20535;-63
2023/08/02 14:21:10;;;;;;;4.63;1.15;;;;;;;;;;5043330;28;20142;-64
2023/08/02 14:23:37;;;;;;;7.55;1.52;;;;;;;;;;5051849;28;20063;-61
2023/08/02 14:26:03;;;;;;;6.90;1.45;;;;;;;;;;5047358;28;20504;-63
2023/08/02 14:28:30;;;;;;;5.45;1.55;;;;;;;;;;5047858;28;20241;-64
2023/08/02 14:30:59;;;;;;;5.50;1.58;;;;;;;;;;5063035;28;20103;-63
2023/08/02 14:33:26;;;;;;;13.75;1.70;;;;;;;;;;5063361;28;20127;-63
2023/08/02 14:35:52;;;;;;;4.13;1.20;;;;;;;;;;5052356;28;20053;-63
2023/08/02 14:38:19;;;;;;;7.13;1.30;;;;;;;;;;5057192;28;20057;-63
2023/08/02 14:40:45;;;;;;;5.88;1.40;;;;;;;;;;5051927;28;20049;-60
2023/08/02 14:43:12;;;;;;;3.10;1.10;;;;;;;;;;5063692;28;20053;-65